sensor_id;sensor_type;location;lat;lon;timestamp;temperature;humidity
12578;DHT22;6354;51.026;8.968;2023-03-23T00:02:23;12.00;99.90
12578;DHT22;6354;51.026;8.968;2023-03-23T00:04:50;12.00;99.90
12578;DHT22;6354;51.026;8.968;2023-03-23T00:07:18;12.00;99.90
12578;DHT22;6354;51.026;8.968;2023-03-23T00:09:47;11.90;99.90
12578;DHT22;6354;51.026;8.968;2023-03-23T00:12:19;11.90;99.90
12578;DHT22;6354;51.026;8.968;2023-03-23T00:14:48;11.90;99.90
12578;DHT22;6354;51.026;8.968;2023-03-23T00:17:19;12.00;99.90
12578;DHT22;6354;51.026;8.968;2023-03-23T00:19:47;11.90;99.90
12578;DHT22;6354;51.026;8.968;2023-03-23T00:22:14;11.90;99.90
12578;DHT22;6354;51.026;8.968;2023-03-23T00:24:43;11.90;99.90
12578;DHT22;6354;51.026;8.968;2023-03-23T00:27:10;11.90;99.90
12578;DHT22;6354;51.026;8.968;2023-03-23T00:29:40;11.90;99.90
12578;DHT22;6354;51.026;8.968;2023-03-23T00:32:09;11.80;99.90
12578;DHT22;6354;51.026;8.968;2023-03-23T00:34:38;11.70;99.90
12578;DHT22;6354;51.026;8.968;2023-03-23T00:37:06;11.70;99.90
12578;DHT22;6354;51.026;8.968;2023-03-23T00:39:34;11.70;99.90
12578;DHT22;6354;51.026;8.968;2023-03-23T00:42:03;11.60;99.90
12578;DHT22;6354;51.026;8.968;2023-03-23T00:44:31;11.60;99.90
12578;DHT22;6354;51.026;8.968;2023-03-23T00:47:00;11.60;99.90
12578;DHT22;6354;51.026;8.968;2023-03-23T00:49:29;11.60;99.90
12578;DHT22;6354;51.026;8.968;2023-03-23T00:51:57;11.50;99.90
12578;DHT22;6354;51.026;8.968;2023-03-23T00:54:25;11.50;99.90
12578;DHT22;6354;51.026;8.968;2023-03-23T00:56:52;11.60;99.90
12578;DHT22;6354;51.026;8.968;2023-03-23T00:59:20;11.60;99.90
12578;DHT22;6354;51.026;8.968;2023-03-23T01:01:48;11.60;99.90
12578;DHT22;6354;51.026;8.968;2023-03-23T01:04:16;11.50;99.90
12578;DHT22;6354;51.026;8.968;2023-03-23T01:06:48;11.60;99.90
12578;DHT22;6354;51.026;8.968;2023-03-23T01:09:17;11.60;99.90
12578;DHT22;6354;51.026;8.968;2023-03-23T01:11:45;11.60;99.90
12578;DHT22;6354;51.026;8.968;2023-03-23T01:14:13;11.50;99.90
12578;DHT22;6354;51.026;8.968;2023-03-23T01:16:41;11.50;99.90
12578;DHT22;6354;51.026;8.968;2023-03-23T01:19:08;11.50;99.90
12578;DHT22;6354;51.026;8.968;2023-03-23T01:21:35;11.50;99.90
12578;DHT22;6354;51.026;8.968;2023-03-23T01:24:05;11.50;99.90
12578;DHT22;6354;51.026;8.968;2023-03-23T01:26:32;11.50;99.90
12578;DHT22;6354;51.026;8.968;2023-03-23T01:28:59;11.50;99.90
12578;DHT22;6354;51.026;8.968;2023-03-23T01:31:26;11.50;99.90
12578;DHT22;6354;51.026;8.968;2023-03-23T01:33:53;11.40;99.90
12578;DHT22;6354;51.026;8.968;2023-03-23T01:36:23;11.40;99.90
12578;DHT22;6354;51.026;8.968;2023-03-23T01:38:50;11.40;99.90
12578;DHT22;6354;51.026;8.968;2023-03-23T01:41:19;11.30;99.90
12578;DHT22;6354;51.026;8.968;2023-03-23T01:43:57;11.30;99.90
12578;DHT22;6354;51.026;8.968;2023-03-23T01:46:26;11.20;99.90
12578;DHT22;6354;51.026;8.968;2023-03-23T01:48:53;11.20;99.90
12578;DHT22;6354;51.026;8.968;2023-03-23T01:51:21;11.20;99.90
12578;DHT22;6354;51.026;8.968;2023-03-23T01:53:52;11.30;99.90
12578;DHT22;6354;51.026;8.968;2023-03-23T01:56:25;11.20;99.90
12578;DHT22;6354;51.026;8.968;2023-03-23T01:58:53;11.20;99.90
12578;DHT22;6354;51.026;8.968;2023-03-23T02:01:21;11.20;99.90
12578;DHT22;6354;51.026;8.968;2023-03-23T02:03:51;11.20;99.90
12578;DHT22;6354;51.026;8.968;2023-03-23T02:06:19;11.10;99.90
12578;DHT22;6354;51.026;8.968;2023-03-23T02:08:48;11.10;99.90
12578;DHT22;6354;51.026;8.968;2023-03-23T02:11:16;11.10;99.90
12578;DHT22;6354;51.026;8.968;2023-03-23T02:13:46;11.10;99.90
12578;DHT22;6354;51.026;8.968;2023-03-23T02:16:18;11.10;99.90
12578;DHT22;6354;51.026;8.968;2023-03-23T02:18:55;11.10;99.90
12578;DHT22;6354;51.026;8.968;2023-03-23T02:25:02;11.00;99.90
12578;DHT22;6354;51.026;8.968;2023-03-23T02:30:49;11.00;99.90
12578;DHT22;6354;51.026;8.968;2023-03-23T02:33:36;10.90;99.90
12578;DHT22;6354;51.026;8.968;2023-03-23T02:36:12;11.00;99.90
12578;DHT22;6354;51.026;8.968;2023-03-23T02:38:44;10.90;99.90
12578;DHT22;6354;51.026;8.968;2023-03-23T02:41:18;10.90;99.90
12578;DHT22;6354;51.026;8.968;2023-03-23T02:43:46;10.90;99.90
12578;DHT22;6354;51.026;8.968;2023-03-23T02:46:15;10.90;99.90
12578;DHT22;6354;51.026;8.968;2023-03-23T02:48:44;10.80;99.90
12578;DHT22;6354;51.026;8.968;2023-03-23T02:51:14;10.80;99.90
12578;DHT22;6354;51.026;8.968;2023-03-23T02:53:43;10.80;99.90
12578;DHT22;6354;51.026;8.968;2023-03-23T02:56:11;10.80;99.90
12578;DHT22;6354;51.026;8.968;2023-03-23T02:58:39;10.80;99.90
12578;DHT22;6354;51.026;8.968;2023-03-23T03:01:48;10.80;99.90
12578;DHT22;6354;51.026;8.968;2023-03-23T03:04:19;10.70;99.90
12578;DHT22;6354;51.026;8.968;2023-03-23T03:06:54;10.70;99.90
12578;DHT22;6354;51.026;8.968;2023-03-23T03:09:30;10.70;99.90
12578;DHT22;6354;51.026;8.968;2023-03-23T03:12:05;10.70;99.90
12578;DHT22;6354;51.026;8.968;2023-03-23T03:14:38;10.70;99.90
12578;DHT22;6354;51.026;8.968;2023-03-23T03:17:12;10.70;99.90
12578;DHT22;6354;51.026;8.968;2023-03-23T03:19:45;10.70;99.90
12578;DHT22;6354;51.026;8.968;2023-03-23T03:22:13;10.60;99.90
12578;DHT22;6354;51.026;8.968;2023-03-23T03:24:42;10.60;99.90
12578;DHT22;6354;51.026;8.968;2023-03-23T03:27:12;10.70;99.90
12578;DHT22;6354;51.026;8.968;2023-03-23T03:29:45;10.60;99.90
12578;DHT22;6354;51.026;8.968;2023-03-23T03:32:16;10.60;99.90
12578;DHT22;6354;51.026;8.968;2023-03-23T03:34:45;10.50;99.90
12578;DHT22;6354;51.026;8.968;2023-03-23T03:37:13;10.50;99.90
12578;DHT22;6354;51.026;8.968;2023-03-23T03:39:41;10.50;99.90
12578;DHT22;6354;51.026;8.968;2023-03-23T03:42:08;10.50;99.90
12578;DHT22;6354;51.026;8.968;2023-03-23T03:44:35;10.50;99.90
12578;DHT22;6354;51.026;8.968;2023-03-23T03:47:03;10.50;99.90
12578;DHT22;6354;51.026;8.968;2023-03-23T03:49:30;10.40;99.90
12578;DHT22;6354;51.026;8.968;2023-03-23T03:51:58;10.40;99.90
12578;DHT22;6354;51.026;8.968;2023-03-23T03:54:25;10.40;99.90
12578;DHT22;6354;51.026;8.968;2023-03-23T03:56:52;10.40;99.90
12578;DHT22;6354;51.026;8.968;2023-03-23T03:59:23;10.40;99.90
12578;DHT22;6354;51.026;8.968;2023-03-23T04:01:51;10.40;99.90
12578;DHT22;6354;51.026;8.968;2023-03-23T04:04:20;10.40;99.90
12578;DHT22;6354;51.026;8.968;2023-03-23T04:06:48;10.40;99.90
12578;DHT22;6354;51.026;8.968;2023-03-23T04:09:16;10.40;99.90
12578;DHT22;6354;51.026;8.968;2023-03-23T04:11:45;10.40;99.90
12578;DHT22;6354;51.026;8.968;2023-03-23T04:14:12;10.50;99.90
12578;DHT22;6354;51.026;8.968;2023-03-23T04:16:38;10.40;99.90
12578;DHT22;6354;51.026;8.968;2023-03-23T04:19:06;10.40;99.90
12578;DHT22;6354;51.026;8.968;2023-03-23T04:21:34;10.40;99.90
12578;DHT22;6354;51.026;8.968;2023-03-23T04:24:01;10.40;99.90
12578;DHT22;6354;51.026;8.968;2023-03-23T04:26:30;10.30;99.90
12578;DHT22;6354;51.026;8.968;2023-03-23T04:28:58;10.30;99.90
12578;DHT22;6354;51.026;8.968;2023-03-23T04:31:25;10.30;99.90
12578;DHT22;6354;51.026;8.968;2023-03-23T04:33:52;10.30;99.90
12578;DHT22;6354;51.026;8.968;2023-03-23T04:36:19;10.20;99.90
12578;DHT22;6354;51.026;8.968;2023-03-23T04:38:48;10.20;99.90
12578;DHT22;6354;51.026;8.968;2023-03-23T04:41:20;10.20;99.90
12578;DHT22;6354;51.026;8.968;2023-03-23T04:43:49;10.20;99.90
12578;DHT22;6354;51.026;8.968;2023-03-23T04:46:19;10.20;99.90
12578;DHT22;6354;51.026;8.968;2023-03-23T04:48:47;10.20;99.90
12578;DHT22;6354;51.026;8.968;2023-03-23T04:51:14;10.20;99.90
12578;DHT22;6354;51.026;8.968;2023-03-23T04:53:41;10.20;99.90
12578;DHT22;6354;51.026;8.968;2023-03-23T04:56:08;10.20;99.90
12578;DHT22;6354;51.026;8.968;2023-03-23T04:58:35;10.20;99.90
12578;DHT22;6354;51.026;8.968;2023-03-23T05:01:03;10.20;99.90
12578;DHT22;6354;51.026;8.968;2023-03-23T05:03:30;10.20;99.90
12578;DHT22;6354;51.026;8.968;2023-03-23T05:06:00;10.10;99.90
12578;DHT22;6354;51.026;8.968;2023-03-23T05:08:27;10.10;99.90
12578;DHT22;6354;51.026;8.968;2023-03-23T05:10:56;10.10;99.90
12578;DHT22;6354;51.026;8.968;2023-03-23T05:13:23;10.10;99.90
12578;DHT22;6354;51.026;8.968;2023-03-23T05:15:51;10.10;99.90
12578;DHT22;6354;51.026;8.968;2023-03-23T05:18:19;10.00;99.90
12578;DHT22;6354;51.026;8.968;2023-03-23T05:20:46;10.00;99.90
12578;DHT22;6354;51.026;8.968;2023-03-23T05:23:15;10.10;99.90
12578;DHT22;6354;51.026;8.968;2023-03-23T05:25:42;10.00;99.90
12578;DHT22;6354;51.026;8.968;2023-03-23T05:28:10;10.00;99.90
12578;DHT22;6354;51.026;8.968;2023-03-23T05:30:38;10.00;99.90
12578;DHT22;6354;51.026;8.968;2023-03-23T05:33:06;10.10;99.90
12578;DHT22;6354;51.026;8.968;2023-03-23T05:35:34;10.00;99.90
12578;DHT22;6354;51.026;8.968;2023-03-23T05:38:02;10.00;99.90
12578;DHT22;6354;51.026;8.968;2023-03-23T05:40:29;10.00;99.90
12578;DHT22;6354;51.026;8.968;2023-03-23T05:42:56;10.00;99.90
12578;DHT22;6354;51.026;8.968;2023-03-23T05:45:24;10.10;99.90
12578;DHT22;6354;51.026;8.968;2023-03-23T05:47:52;10.10;99.90
12578;DHT22;6354;51.026;8.968;2023-03-23T05:50:19;10.10;99.90
12578;DHT22;6354;51.026;8.968;2023-03-23T05:52:47;10.20;99.90
12578;DHT22;6354;51.026;8.968;2023-03-23T05:55:14;10.10;99.90
12578;DHT22;6354;51.026;8.968;2023-03-23T05:57:41;10.20;99.90
12578;DHT22;6354;51.026;8.968;2023-03-23T06:00:09;10.20;99.90
12578;DHT22;6354;51.026;8.968;2023-03-23T06:02:46;10.20;99.90
12578;DHT22;6354;51.026;8.968;2023-03-23T06:05:14;10.20;99.90
12578;DHT22;6354;51.026;8.968;2023-03-23T06:07:41;10.20;99.90
12578;DHT22;6354;51.026;8.968;2023-03-23T06:10:10;10.20;99.90
12578;DHT22;6354;51.026;8.968;2023-03-23T06:12:37;10.30;99.90
12578;DHT22;6354;51.026;8.968;2023-03-23T06:15:06;10.30;99.90
12578;DHT22;6354;51.026;8.968;2023-03-23T06:17:34;10.30;99.90
12578;DHT22;6354;51.026;8.968;2023-03-23T06:20:02;10.30;99.90
12578;DHT22;6354;51.026;8.968;2023-03-23T06:22:35;10.30;99.90
12578;DHT22;6354;51.026;8.968;2023-03-23T06:25:04;10.40;99.90
12578;DHT22;6354;51.026;8.968;2023-03-23T06:27:33;10.40;99.90
12578;DHT22;6354;51.026;8.968;2023-03-23T06:30:01;10.40;99.90
12578;DHT22;6354;51.026;8.968;2023-03-23T06:32:30;10.40;99.90
12578;DHT22;6354;51.026;8.968;2023-03-23T06:34:57;10.40;99.90
12578;DHT22;6354;51.026;8.968;2023-03-23T06:37:24;10.40;99.90
12578;DHT22;6354;51.026;8.968;2023-03-23T06:39:51;10.50;99.90
12578;DHT22;6354;51.026;8.968;2023-03-23T06:42:19;10.50;99.90
12578;DHT22;6354;51.026;8.968;2023-03-23T06:44:47;10.60;99.90
12578;DHT22;6354;51.026;8.968;2023-03-23T06:47:14;10.60;99.90
12578;DHT22;6354;51.026;8.968;2023-03-23T06:49:41;10.60;99.90
12578;DHT22;6354;51.026;8.968;2023-03-23T06:52:08;10.60;99.90
12578;DHT22;6354;51.026;8.968;2023-03-23T06:54:35;10.60;99.90
12578;DHT22;6354;51.026;8.968;2023-03-23T06:57:02;10.70;99.90
12578;DHT22;6354;51.026;8.968;2023-03-23T06:59:29;10.70;99.90
12578;DHT22;6354;51.026;8.968;2023-03-23T07:01:58;10.70;99.90
12578;DHT22;6354;51.026;8.968;2023-03-23T07:04:25;10.70;99.90
12578;DHT22;6354;51.026;8.968;2023-03-23T07:06:51;10.70;99.90
12578;DHT22;6354;51.026;8.968;2023-03-23T07:09:18;10.70;99.90
12578;DHT22;6354;51.026;8.968;2023-03-23T07:11:46;10.60;99.90
12578;DHT22;6354;51.026;8.968;2023-03-23T07:14:13;10.60;99.90
12578;DHT22;6354;51.026;8.968;2023-03-23T07:16:40;10.60;99.90
12578;DHT22;6354;51.026;8.968;2023-03-23T07:19:09;10.60;99.90
12578;DHT22;6354;51.026;8.968;2023-03-23T07:21:36;10.70;99.90
12578;DHT22;6354;51.026;8.968;2023-03-23T07:24:04;10.60;99.90
12578;DHT22;6354;51.026;8.968;2023-03-23T07:26:31;10.60;99.90
12578;DHT22;6354;51.026;8.968;2023-03-23T07:28:58;10.70;99.90
12578;DHT22;6354;51.026;8.968;2023-03-23T07:31:25;10.70;99.90
12578;DHT22;6354;51.026;8.968;2023-03-23T07:33:52;10.80;99.90
12578;DHT22;6354;51.026;8.968;2023-03-23T07:36:20;10.80;99.90
12578;DHT22;6354;51.026;8.968;2023-03-23T07:38:47;10.90;99.90
12578;DHT22;6354;51.026;8.968;2023-03-23T07:41:15;11.00;99.90
12578;DHT22;6354;51.026;8.968;2023-03-23T07:43:43;11.10;99.90
12578;DHT22;6354;51.026;8.968;2023-03-23T07:46:10;11.30;99.90
12578;DHT22;6354;51.026;8.968;2023-03-23T07:48:37;11.40;99.90
12578;DHT22;6354;51.026;8.968;2023-03-23T07:51:05;11.40;99.90
12578;DHT22;6354;51.026;8.968;2023-03-23T07:53:34;11.50;99.90
12578;DHT22;6354;51.026;8.968;2023-03-23T07:56:01;11.50;99.90
12578;DHT22;6354;51.026;8.968;2023-03-23T07:58:29;11.50;99.90
12578;DHT22;6354;51.026;8.968;2023-03-23T08:00:55;11.50;99.90
12578;DHT22;6354;51.026;8.968;2023-03-23T08:03:24;11.60;99.90
12578;DHT22;6354;51.026;8.968;2023-03-23T08:05:51;11.60;99.90
12578;DHT22;6354;51.026;8.968;2023-03-23T08:08:18;11.70;99.90
12578;DHT22;6354;51.026;8.968;2023-03-23T08:10:47;11.80;99.90
12578;DHT22;6354;51.026;8.968;2023-03-23T08:13:14;11.90;99.90
12578;DHT22;6354;51.026;8.968;2023-03-23T08:15:41;11.90;99.90
12578;DHT22;6354;51.026;8.968;2023-03-23T08:18:08;11.90;99.90
12578;DHT22;6354;51.026;8.968;2023-03-23T08:20:36;11.90;99.90
12578;DHT22;6354;51.026;8.968;2023-03-23T08:23:03;11.80;99.90
12578;DHT22;6354;51.026;8.968;2023-03-23T08:25:32;11.90;99.90
12578;DHT22;6354;51.026;8.968;2023-03-23T08:28:00;12.00;99.90
12578;DHT22;6354;51.026;8.968;2023-03-23T08:30:28;12.00;99.90
12578;DHT22;6354;51.026;8.968;2023-03-23T08:32:59;12.00;99.90
12578;DHT22;6354;51.026;8.968;2023-03-23T08:35:27;12.10;99.90
12578;DHT22;6354;51.026;8.968;2023-03-23T08:37:54;12.20;99.90
12578;DHT22;6354;51.026;8.968;2023-03-23T08:40:22;12.20;99.90
12578;DHT22;6354;51.026;8.968;2023-03-23T08:42:50;12.30;99.90
12578;DHT22;6354;51.026;8.968;2023-03-23T08:45:20;12.50;99.90
12578;DHT22;6354;51.026;8.968;2023-03-23T08:47:48;12.60;99.90
12578;DHT22;6354;51.026;8.968;2023-03-23T08:50:20;12.70;99.90
12578;DHT22;6354;51.026;8.968;2023-03-23T08:52:48;12.70;99.90
12578;DHT22;6354;51.026;8.968;2023-03-23T08:55:16;12.80;99.90
12578;DHT22;6354;51.026;8.968;2023-03-23T08:57:44;12.90;99.90
12578;DHT22;6354;51.026;8.968;2023-03-23T09:00:13;13.00;99.90
12578;DHT22;6354;51.026;8.968;2023-03-23T09:02:43;12.90;99.90
12578;DHT22;6354;51.026;8.968;2023-03-23T09:05:11;13.00;99.90
12578;DHT22;6354;51.026;8.968;2023-03-23T09:07:38;13.20;99.90
12578;DHT22;6354;51.026;8.968;2023-03-23T09:10:06;13.40;99.90
12578;DHT22;6354;51.026;8.968;2023-03-23T09:12:33;13.30;99.90
12578;DHT22;6354;51.026;8.968;2023-03-23T09:15:01;13.40;99.90
12578;DHT22;6354;51.026;8.968;2023-03-23T09:17:35;13.50;99.90
12578;DHT22;6354;51.026;8.968;2023-03-23T09:20:08;13.30;99.90
12578;DHT22;6354;51.026;8.968;2023-03-23T09:22:37;13.30;99.90
12578;DHT22;6354;51.026;8.968;2023-03-23T09:25:06;13.40;99.90
12578;DHT22;6354;51.026;8.968;2023-03-23T09:27:34;13.50;99.90
12578;DHT22;6354;51.026;8.968;2023-03-23T09:30:03;13.50;99.90
12578;DHT22;6354;51.026;8.968;2023-03-23T09:32:32;13.60;99.90
12578;DHT22;6354;51.026;8.968;2023-03-23T09:35:00;13.60;99.90
12578;DHT22;6354;51.026;8.968;2023-03-23T09:37:29;13.70;99.90
12578;DHT22;6354;51.026;8.968;2023-03-23T09:39:56;13.80;99.90
12578;DHT22;6354;51.026;8.968;2023-03-23T09:42:35;13.90;99.90
12578;DHT22;6354;51.026;8.968;2023-03-23T09:45:12;13.90;99.90
12578;DHT22;6354;51.026;8.968;2023-03-23T09:47:48;13.90;99.90
12578;DHT22;6354;51.026;8.968;2023-03-23T09:50:18;13.90;99.90
12578;DHT22;6354;51.026;8.968;2023-03-23T09:52:50;14.00;99.90
12578;DHT22;6354;51.026;8.968;2023-03-23T09:55:19;14.10;99.90
12578;DHT22;6354;51.026;8.968;2023-03-23T09:57:52;14.00;99.90
12578;DHT22;6354;51.026;8.968;2023-03-23T10:00:25;13.90;99.90
12578;DHT22;6354;51.026;8.968;2023-03-23T10:02:59;13.90;99.90
12578;DHT22;6354;51.026;8.968;2023-03-23T10:05:33;14.00;99.90
12578;DHT22;6354;51.026;8.968;2023-03-23T10:08:05;13.90;99.90
12578;DHT22;6354;51.026;8.968;2023-03-23T10:10:43;13.90;99.90
12578;DHT22;6354;51.026;8.968;2023-03-23T10:13:19;13.70;99.90
12578;DHT22;6354;51.026;8.968;2023-03-23T10:15:49;13.70;99.90
12578;DHT22;6354;51.026;8.968;2023-03-23T10:18:20;13.60;99.90
12578;DHT22;6354;51.026;8.968;2023-03-23T10:20:54;13.80;99.90
12578;DHT22;6354;51.026;8.968;2023-03-23T10:23:50;13.80;99.90
12578;DHT22;6354;51.026;8.968;2023-03-23T10:26:29;13.80;99.90
12578;DHT22;6354;51.026;8.968;2023-03-23T10:29:07;13.60;99.90
12578;DHT22;6354;51.026;8.968;2023-03-23T10:31:38;13.50;99.90
12578;DHT22;6354;51.026;8.968;2023-03-23T10:34:10;13.50;99.90
12578;DHT22;6354;51.026;8.968;2023-03-23T10:36:51;13.50;99.90
12578;DHT22;6354;51.026;8.968;2023-03-23T10:39:23;13.50;99.90
12578;DHT22;6354;51.026;8.968;2023-03-23T10:41:50;13.50;99.90
12578;DHT22;6354;51.026;8.968;2023-03-23T10:44:20;13.50;99.90
12578;DHT22;6354;51.026;8.968;2023-03-23T10:46:53;13.70;99.90
12578;DHT22;6354;51.026;8.968;2023-03-23T10:49:24;13.90;99.90
12578;DHT22;6354;51.026;8.968;2023-03-23T10:52:02;14.10;99.90
12578;DHT22;6354;51.026;8.968;2023-03-23T10:54:37;14.30;99.90
12578;DHT22;6354;51.026;8.968;2023-03-23T10:57:13;14.30;99.90
12578;DHT22;6354;51.026;8.968;2023-03-23T10:59:46;14.30;99.90
12578;DHT22;6354;51.026;8.968;2023-03-23T11:02:16;14.30;99.90
12578;DHT22;6354;51.026;8.968;2023-03-23T11:04:46;14.40;99.90
12578;DHT22;6354;51.026;8.968;2023-03-23T11:07:28;14.40;99.90
12578;DHT22;6354;51.026;8.968;2023-03-23T11:10:06;14.60;99.90
12578;DHT22;6354;51.026;8.968;2023-03-23T11:12:35;14.70;99.90
12578;DHT22;6354;51.026;8.968;2023-03-23T11:15:23;14.60;99.90
12578;DHT22;6354;51.026;8.968;2023-03-23T11:17:59;14.60;99.90
12578;DHT22;6354;51.026;8.968;2023-03-23T11:20:29;14.70;99.90
12578;DHT22;6354;51.026;8.968;2023-03-23T11:22:57;14.60;99.90
12578;DHT22;6354;51.026;8.968;2023-03-23T11:25:25;14.60;99.90
12578;DHT22;6354;51.026;8.968;2023-03-23T11:27:53;14.50;99.90
12578;DHT22;6354;51.026;8.968;2023-03-23T11:30:24;14.30;99.90
12578;DHT22;6354;51.026;8.968;2023-03-23T11:32:54;14.30;99.90
12578;DHT22;6354;51.026;8.968;2023-03-23T11:35:25;14.40;99.90
12578;DHT22;6354;51.026;8.968;2023-03-23T11:37:54;14.10;99.90
12578;DHT22;6354;51.026;8.968;2023-03-23T11:40:23;14.10;99.90
12578;DHT22;6354;51.026;8.968;2023-03-23T11:42:59;14.10;99.90
12578;DHT22;6354;51.026;8.968;2023-03-23T11:45:33;14.00;99.90
12578;DHT22;6354;51.026;8.968;2023-03-23T11:48:11;13.80;99.90
12578;DHT22;6354;51.026;8.968;2023-03-23T11:50:48;13.80;99.90
12578;DHT22;6354;51.026;8.968;2023-03-23T11:53:27;13.60;99.90
12578;DHT22;6354;51.026;8.968;2023-03-23T11:56:05;13.50;99.90
12578;DHT22;6354;51.026;8.968;2023-03-23T11:58:34;13.50;99.90
12578;DHT22;6354;51.026;8.968;2023-03-23T12:01:06;13.40;99.90
12578;DHT22;6354;51.026;8.968;2023-03-23T12:03:56;13.40;99.90
12578;DHT22;6354;51.026;8.968;2023-03-23T12:06:34;13.40;99.90
12578;DHT22;6354;51.026;8.968;2023-03-23T12:09:12;13.50;99.90
12578;DHT22;6354;51.026;8.968;2023-03-23T12:11:51;13.50;99.90
12578;DHT22;6354;51.026;8.968;2023-03-23T12:14:26;13.60;99.90
12578;DHT22;6354;51.026;8.968;2023-03-23T12:17:07;13.70;99.90
12578;DHT22;6354;51.026;8.968;2023-03-23T12:19:46;13.50;99.90
12578;DHT22;6354;51.026;8.968;2023-03-23T12:22:24;13.40;99.90
12578;DHT22;6354;51.026;8.968;2023-03-23T12:25:06;13.20;99.90
12578;DHT22;6354;51.026;8.968;2023-03-23T12:27:41;13.20;99.90
12578;DHT22;6354;51.026;8.968;2023-03-23T12:30:24;13.20;99.90
12578;DHT22;6354;51.026;8.968;2023-03-23T12:32:59;13.20;99.90
12578;DHT22;6354;51.026;8.968;2023-03-23T12:35:37;13.30;99.90
12578;DHT22;6354;51.026;8.968;2023-03-23T12:38:20;13.30;99.90
12578;DHT22;6354;51.026;8.968;2023-03-23T12:43:48;13.10;99.90
12578;DHT22;6354;51.026;8.968;2023-03-23T12:46:37;13.10;99.90
12578;DHT22;6354;51.026;8.968;2023-03-23T12:49:11;13.10;99.90
12578;DHT22;6354;51.026;8.968;2023-03-23T12:51:44;13.20;99.90
12578;DHT22;6354;51.026;8.968;2023-03-23T12:54:24;13.60;99.90
12578;DHT22;6354;51.026;8.968;2023-03-23T12:56:56;14.10;99.90
12578;DHT22;6354;51.026;8.968;2023-03-23T12:59:30;14.20;99.90
12578;DHT22;6354;51.026;8.968;2023-03-23T13:02:05;14.50;99.90
12578;DHT22;6354;51.026;8.968;2023-03-23T13:04:37;14.70;99.90
12578;DHT22;6354;51.026;8.968;2023-03-23T13:07:08;14.70;99.90
12578;DHT22;6354;51.026;8.968;2023-03-23T13:09:48;14.80;99.90
12578;DHT22;6354;51.026;8.968;2023-03-23T13:12:17;14.90;99.90
12578;DHT22;6354;51.026;8.968;2023-03-23T13:14:54;14.90;99.90
12578;DHT22;6354;51.026;8.968;2023-03-23T13:17:32;14.90;99.90
12578;DHT22;6354;51.026;8.968;2023-03-23T13:20:17;14.90;99.90
12578;DHT22;6354;51.026;8.968;2023-03-23T13:22:49;14.80;99.90
12578;DHT22;6354;51.026;8.968;2023-03-23T13:25:19;14.60;99.90
12578;DHT22;6354;51.026;8.968;2023-03-23T13:27:57;14.50;99.90
12578;DHT22;6354;51.026;8.968;2023-03-23T13:30:25;14.30;99.90
12578;DHT22;6354;51.026;8.968;2023-03-23T13:33:03;14.30;99.90
12578;DHT22;6354;51.026;8.968;2023-03-23T13:35:35;14.40;99.90
12578;DHT22;6354;51.026;8.968;2023-03-23T13:38:12;14.40;99.90
12578;DHT22;6354;51.026;8.968;2023-03-23T13:40:43;14.40;99.90
12578;DHT22;6354;51.026;8.968;2023-03-23T13:43:11;14.50;99.90
12578;DHT22;6354;51.026;8.968;2023-03-23T13:45:44;14.50;99.90
12578;DHT22;6354;51.026;8.968;2023-03-23T13:48:22;14.60;99.90
12578;DHT22;6354;51.026;8.968;2023-03-23T13:50:53;14.50;99.90
12578;DHT22;6354;51.026;8.968;2023-03-23T13:53:26;14.40;99.90
12578;DHT22;6354;51.026;8.968;2023-03-23T13:56:07;14.40;99.90
12578;DHT22;6354;51.026;8.968;2023-03-23T13:58:45;14.40;99.90
12578;DHT22;6354;51.026;8.968;2023-03-23T14:01:16;14.40;99.90
12578;DHT22;6354;51.026;8.968;2023-03-23T14:03:47;14.30;99.90
12578;DHT22;6354;51.026;8.968;2023-03-23T14:06:19;14.30;99.90
12578;DHT22;6354;51.026;8.968;2023-03-23T14:08:50;14.30;99.90
12578;DHT22;6354;51.026;8.968;2023-03-23T14:11:20;14.20;99.90
12578;DHT22;6354;51.026;8.968;2023-03-23T14:14:00;14.20;99.90
12578;DHT22;6354;51.026;8.968;2023-03-23T14:16:35;14.20;99.90
12578;DHT22;6354;51.026;8.968;2023-03-23T14:19:13;14.30;99.90
12578;DHT22;6354;51.026;8.968;2023-03-23T14:21:48;14.40;99.90
12578;DHT22;6354;51.026;8.968;2023-03-23T14:24:17;14.50;99.90
12578;DHT22;6354;51.026;8.968;2023-03-23T14:26:44;14.60;99.90
12578;DHT22;6354;51.026;8.968;2023-03-23T14:29:13;14.60;99.90
12578;DHT22;6354;51.026;8.968;2023-03-23T14:31:41;14.50;99.90
12578;DHT22;6354;51.026;8.968;2023-03-23T14:34:13;14.60;99.90
12578;DHT22;6354;51.026;8.968;2023-03-23T14:36:41;14.70;99.90
12578;DHT22;6354;51.026;8.968;2023-03-23T14:39:16;14.80;99.90
12578;DHT22;6354;51.026;8.968;2023-03-23T14:41:44;14.90;99.90
12578;DHT22;6354;51.026;8.968;2023-03-23T14:44:14;15.00;99.90
12578;DHT22;6354;51.026;8.968;2023-03-23T14:46:42;15.10;99.90
12578;DHT22;6354;51.026;8.968;2023-03-23T14:49:14;15.20;99.90
12578;DHT22;6354;51.026;8.968;2023-03-23T14:51:49;15.30;99.90
12578;DHT22;6354;51.026;8.968;2023-03-23T14:54:21;15.40;99.90
12578;DHT22;6354;51.026;8.968;2023-03-23T14:56:49;15.40;99.90
12578;DHT22;6354;51.026;8.968;2023-03-23T14:59:16;15.30;99.90
12578;DHT22;6354;51.026;8.968;2023-03-23T15:01:44;15.20;99.90
12578;DHT22;6354;51.026;8.968;2023-03-23T15:04:16;15.20;99.90
12578;DHT22;6354;51.026;8.968;2023-03-23T15:06:46;15.00;99.90
12578;DHT22;6354;51.026;8.968;2023-03-23T15:09:17;14.90;99.90
12578;DHT22;6354;51.026;8.968;2023-03-23T15:11:52;14.80;99.90
12578;DHT22;6354;51.026;8.968;2023-03-23T15:14:22;14.80;99.90
12578;DHT22;6354;51.026;8.968;2023-03-23T15:16:50;14.70;99.90
12578;DHT22;6354;51.026;8.968;2023-03-23T15:19:22;14.70;99.90
12578;DHT22;6354;51.026;8.968;2023-03-23T15:21:52;14.80;99.90
12578;DHT22;6354;51.026;8.968;2023-03-23T15:24:25;14.90;99.90
12578;DHT22;6354;51.026;8.968;2023-03-23T15:26:53;14.90;99.90
12578;DHT22;6354;51.026;8.968;2023-03-23T15:29:22;15.00;99.90
12578;DHT22;6354;51.026;8.968;2023-03-23T15:31:52;15.00;99.90
12578;DHT22;6354;51.026;8.968;2023-03-23T15:34:27;15.00;99.90
12578;DHT22;6354;51.026;8.968;2023-03-23T15:36:57;15.00;99.90
12578;DHT22;6354;51.026;8.968;2023-03-23T15:39:25;15.00;99.90
12578;DHT22;6354;51.026;8.968;2023-03-23T15:41:53;15.00;99.90
12578;DHT22;6354;51.026;8.968;2023-03-23T15:44:26;15.00;99.90
12578;DHT22;6354;51.026;8.968;2023-03-23T15:47:03;15.00;99.90
12578;DHT22;6354;51.026;8.968;2023-03-23T15:49:34;14.90;99.90
12578;DHT22;6354;51.026;8.968;2023-03-23T15:52:02;14.80;99.90
12578;DHT22;6354;51.026;8.968;2023-03-23T15:54:30;14.80;99.90
12578;DHT22;6354;51.026;8.968;2023-03-23T15:56:58;14.70;99.90
12578;DHT22;6354;51.026;8.968;2023-03-23T15:59:25;14.70;99.90
12578;DHT22;6354;51.026;8.968;2023-03-23T16:01:53;14.70;99.90
12578;DHT22;6354;51.026;8.968;2023-03-23T16:04:21;14.60;99.90
12578;DHT22;6354;51.026;8.968;2023-03-23T16:06:52;14.60;99.90
12578;DHT22;6354;51.026;8.968;2023-03-23T16:09:22;14.60;99.90
12578;DHT22;6354;51.026;8.968;2023-03-23T16:11:50;14.60;99.90
12578;DHT22;6354;51.026;8.968;2023-03-23T16:14:18;14.70;99.90
12578;DHT22;6354;51.026;8.968;2023-03-23T16:16:47;14.70;99.90